Time;durP1;ratioP1;P1;durP2;ratioP2;P2;SDS_P1;SDS_P2;PMS_P1;PMS_P2;Temp;Humidity;BMP_temperature;BMP_pressure;BME280_temperature;BME280_humidity;BME280_pressure;Samples;Min_cycle;Max_cycle;Signal;HPM_P1;HPM_P2
2023/11/21 00:02:31;;;;;;;3.63;2.38;;;23.30;51.60;;;;;;6177879;28;80397;-66
2023/11/21 00:05:31;;;;;;;4.40;2.47;;;23.30;51.50;;;;;;6177652;28;80095;-65
2023/11/21 00:08:32;;;;;;;4.47;2.03;;;23.30;51.50;;;;;;6177954;28;82747;-64
2023/11/21 00:11:33;;;;;;;2.67;1.90;;;23.30;51.40;;;;;;6176425;28;81310;-64
2023/11/21 00:14:33;;;;;;;3.30;2.20;;;23.30;51.30;;;;;;6176398;28;83604;-64
2023/11/21 00:17:34;;;;;;;4.30;2.55;;;23.30;51.20;;;;;;6176451;28;80668;-62
2023/11/21 00:20:34;;;;;;;4.82;2.20;;;23.30;51.20;;;;;;6176793;28;81075;-63
2023/11/21 00:23:35;;;;;;;4.40;1.98;;;23.30;51.20;;;;;;6176854;28;80365;-63
2023/11/21 00:26:37;;;;;;;7.18;2.45;;;23.30;51.30;;;;;;6176612;28;82425;-63
2023/11/21 00:29:41;;;;;;;2.95;2.10;;;23.30;51.30;;;;;;6176135;28;80389;-60
2023/11/21 00:32:41;;;;;;;6.20;2.17;;;23.30;51.30;;;;;;6176610;28;81101;-58
2023/11/21 00:35:42;;;;;;;3.40;2.10;;;23.30;51.20;;;;;;6175722;28;80240;-59
2023/11/21 00:38:42;;;;;;;3.40;2.17;;;23.30;51.10;;;;;;6176491;28;80470;-58
2023/11/21 00:41:44;;;;;;;3.95;2.17;;;23.30;51.10;;;;;;6174205;28;83496;-60
2023/11/21 00:44:45;;;;;;;6.10;2.17;;;23.30;51.20;;;;;;6176313;28;82884;-59
2023/11/21 00:47:45;;;;;;;3.20;2.10;;;23.30;51.40;;;;;;6158281;28;81944;-64
2023/11/21 00:50:46;;;;;;;3.80;1.88;;;23.30;51.30;;;;;;6175658;28;82028;-66
2023/11/21 00:53:46;;;;;;;3.38;2.00;;;23.30;51.40;;;;;;6176962;28;81577;-64
2023/11/21 00:56:48;;;;;;;4.60;2.03;;;23.30;51.30;;;;;;6175004;28;81903;-63
2023/11/21 00:59:48;;;;;;;3.08;2.08;;;23.30;51.20;;;;;;6176225;28;81251;-65
2023/11/21 01:02:48;;;;;;;3.35;2.03;;;23.30;51.10;;;;;;6175593;28;81015;-64
2023/11/21 01:05:50;;;;;;;3.30;1.63;;;23.30;51.20;;;;;;6175090;28;82730;-62
2023/11/21 01:08:50;;;;;;;3.72;2.00;;;23.30;51.10;;;;;;6177790;28;80384;-63
2023/11/21 01:11:51;;;;;;;4.05;2.00;;;23.30;51.10;;;;;;6176093;28;80087;-64
2023/11/21 01:14:52;;;;;;;2.80;1.63;;;23.30;51.10;;;;;;6175144;28;80869;-64
2023/11/21 01:17:52;;;;;;;3.38;1.90;;;23.30;51.10;;;;;;6176556;28;80384;-63
2023/11/21 01:20:54;;;;;;;2.55;1.75;;;23.30;51.20;;;;;;6176677;28;80405;-66
2023/11/21 01:23:55;;;;;;;2.17;1.63;;;23.30;51.10;;;;;;6176761;28;81249;-65
2023/11/21 01:26:55;;;;;;;2.08;1.30;;;23.30;51.20;;;;;;6177100;28;82222;-65
2023/11/21 01:29:56;;;;;;;5.10;1.67;;;23.30;51.10;;;;;;6177764;28;81023;-64
2023/11/21 01:32:56;;;;;;;1.88;1.48;;;23.30;51.10;;;;;;6174767;28;83190;-64
2023/11/21 01:35:57;;;;;;;4.13;1.73;;;23.30;51.20;;;;;;6176441;28;80797;-63
2023/11/21 01:38:59;;;;;;;2.75;1.83;;;23.20;51.10;;;;;;6175074;28;80839;-64
2023/11/21 01:41:59;;;;;;;2.63;1.55;;;23.20;51.10;;;;;;6175719;28;83091;-65
2023/11/21 01:45:01;;;;;;;2.00;1.63;;;23.30;51.30;;;;;;6175779;28;80389;-59
2023/11/21 01:48:03;;;;;;;2.65;1.90;;;23.20;51.10;;;;;;6175135;28;83348;-59
2023/11/21 01:51:03;;;;;;;1.70;1.30;;;23.20;51.00;;;;;;6164082;28;83217;-60
2023/11/21 01:54:04;;;;;;;3.35;1.83;;;23.20;51.00;;;;;;6174650;28;81776;-61
2023/11/21 01:57:06;;;;;;;4.03;2.25;;;23.20;51.00;;;;;;6174153;28;80615;-61
2023/11/21 02:00:15;;;;;;;14.20;2.03;;;23.20;51.00;;;;;;6172383;28;82363;-61
2023/11/21 02:03:16;;;;;;;2.85;1.58;;;23.30;51.20;;;;;;6166782;28;80795;-75
2023/11/21 02:06:16;;;;;;;1.90;1.40;;;23.30;51.10;;;;;;6176116;28;80905;-74
2023/11/21 02:09:17;;;;;;;1.77;1.52;;;23.30;51.10;;;;;;6174520;28;80490;-73
2023/11/21 02:12:18;;;;;;;4.45;1.73;;;23.30;51.00;;;;;;6173979;28;81868;-70
2023/11/21 02:15:26;;;;;;;3.17;1.90;;;23.30;51.10;;;;;;6172661;28;82608;-71
2023/11/21 02:18:28;;;;;;;3.10;1.80;;;23.30;51.10;;;;;;6172876;28;83057;-71
2023/11/21 02:21:30;;;;;;;2.58;1.60;;;23.20;51.00;;;;;;6173022;28;85259;-71
2023/11/21 02:24:30;;;;;;;2.17;1.40;;;23.30;51.00;;;;;;6173276;28;83247;-71
2023/11/21 02:27:31;;;;;;;1.95;1.35;;;23.30;51.00;;;;;;6162642;28;81594;-72
2023/11/21 02:30:31;;;;;;;3.13;1.77;;;23.30;51.00;;;;;;6172776;28;80797;-71
2023/11/21 02:33:35;;;;;;;4.22;1.63;;;23.30;51.00;;;;;;6174941;28;80409;-69
2023/11/21 02:36:35;;;;;;;2.13;1.33;;;23.30;51.00;;;;;;6176235;28;81399;-66
2023/11/21 02:39:36;;;;;;;1.65;1.15;;;23.30;50.90;;;;;;6175502;28;80394;-60
2023/11/21 02:42:36;;;;;;;3.85;1.65;;;23.30;50.90;;;;;;6174164;28;81218;-59
2023/11/21 02:45:37;;;;;;;2.42;1.30;;;23.30;50.90;;;;;;6172283;28;80374;-58
2023/11/21 02:48:38;;;;;;;2.05;1.33;;;23.30;51.10;;;;;;6174205;28;80463;-58
2023/11/21 02:51:38;;;;;;;1.95;1.40;;;23.30;51.00;;;;;;6177929;28;80594;-56
2023/11/21 02:54:40;;;;;;;1.65;1.45;;;23.20;51.00;;;;;;6177532;28;83580;-58
2023/11/21 02:57:40;;;;;;;2.55;1.30;;;23.20;51.00;;;;;;6179252;28;80537;-60
2023/11/21 03:00:41;;;;;;;2.20;1.27;;;23.20;50.90;;;;;;6176345;28;82216;-60
2023/11/21 03:03:42;;;;;;;2.25;1.10;;;23.20;51.00;;;;;;6179147;28;80412;-59
2023/11/21 03:06:42;;;;;;;2.08;1.15;;;23.30;51.00;;;;;;6177385;28;81794;-59
2023/11/21 03:09:43;;;;;;;4.15;1.50;;;23.20;50.90;;;;;;6177695;28;82174;-60
2023/11/21 03:12:44;;;;;;;1.35;1.20;;;23.20;50.80;;;;;;6177305;28;81829;-61
2023/11/21 03:15:44;;;;;;;2.75;1.30;;;23.20;50.90;;;;;;6179391;28;86190;-57
2023/11/21 03:18:45;;;;;;;2.83;1.40;;;23.20;50.90;;;;;;6178055;28;80435;-58
2023/11/21 03:21:46;;;;;;;3.03;1.80;;;23.20;50.80;;;;;;6177269;28;83288;-59
2023/11/21 03:24:47;;;;;;;2.42;1.45;;;23.20;50.80;;;;;;6177231;28;80643;-57
2023/11/21 03:27:47;;;;;;;1.50;1.00;;;23.20;50.80;;;;;;6176455;28;83581;-58
2023/11/21 03:30:48;;;;;;;2.20;1.67;;;23.20;50.90;;;;;;6174315;28;82659;-58
2023/11/21 03:33:48;;;;;;;2.80;1.35;;;23.20;50.80;;;;;;6178200;28;81305;-58
2023/11/21 03:36:49;;;;;;;2.13;1.17;;;23.20;50.90;;;;;;6178122;28;82312;-57
2023/11/21 03:39:49;;;;;;;2.22;1.17;;;23.20;50.90;;;;;;6176619;28;82632;-59
2023/11/21 03:42:50;;;;;;;2.35;1.38;;;23.20;50.80;;;;;;6176570;28;84987;-59
2023/11/21 03:45:54;;;;;;;2.30;1.40;;;23.20;50.80;;;;;;6183145;28;81522;-59
2023/11/21 03:48:55;;;;;;;2.85;1.67;;;23.20;50.80;;;;;;6177640;28;81567;-61
2023/11/21 03:51:56;;;;;;;3.85;1.52;;;23.20;51.00;;;;;;6178284;28;80249;-65
2023/11/21 03:54:57;;;;;;;2.55;1.50;;;23.20;50.90;;;;;;6178576;28;80771;-67
2023/11/21 03:57:57;;;;;;;2.83;1.23;;;23.20;50.80;;;;;;6177066;28;81335;-67
2023/11/21 04:00:58;;;;;;;1.33;1.08;;;23.20;50.80;;;;;;6171423;28;80767;-65
2023/11/21 04:03:59;;;;;;;2.45;1.52;;;23.20;51.20;;;;;;6177192;28;80409;-61
2023/11/21 04:06:59;;;;;;;2.55;1.65;;;23.20;51.00;;;;;;6178448;28;80442;-62
2023/11/21 04:10:00;;;;;;;2.17;1.77;;;23.20;51.00;;;;;;6176964;28;83278;-62
2023/11/21 04:13:00;;;;;;;2.08;1.30;;;23.20;51.00;;;;;;6177781;28;80923;-65
2023/11/21 04:16:03;;;;;;;1.92;1.42;;;23.20;50.80;;;;;;6174861;28;80635;-58
2023/11/21 04:19:03;;;;;;;2.60;1.30;;;23.20;50.80;;;;;;6176134;28;80403;-59
2023/11/21 04:22:04;;;;;;;2.33;1.45;;;23.20;50.60;;;;;;6177403;28;80359;-58
2023/11/21 04:25:04;;;;;;;1.73;1.05;;;23.20;51.00;;;;;;6176349;28;80388;-57
2023/11/21 04:28:05;;;;;;;2.78;1.30;;;23.20;50.70;;;;;;6177480;28;81436;-65
2023/11/21 04:31:06;;;;;;;2.20;1.50;;;23.20;50.60;;;;;;6176108;28;81060;-70
2023/11/21 04:34:08;;;;;;;4.72;1.63;;;23.20;50.60;;;;;;6176610;28;80265;-67
2023/11/21 04:37:10;;;;;;;4.68;1.63;;;23.20;50.70;;;;;;6175030;28;83173;-66
2023/11/21 04:40:10;;;;;;;4.18;1.35;;;23.30;51.10;;;;;;6176367;28;81613;-65
2023/11/21 04:43:11;;;;;;;5.90;1.30;;;23.30;51.00;;;;;;6175632;28;85261;-63
2023/11/21 04:46:11;;;;;;;2.55;1.40;;;23.30;51.70;;;;;;6174789;28;80369;-64
2023/11/21 04:49:12;;;;;;;3.85;1.17;;;23.30;51.10;;;;;;6174557;28;80802;-63
2023/11/21 04:52:12;;;;;;;2.15;1.48;;;23.30;51.20;;;;;;6174410;28;80547;-63
2023/11/21 04:55:13;;;;;;;2.17;1.25;;;23.40;52.00;;;;;;6176006;28;80810;-66
2023/11/21 04:58:13;;;;;;;2.33;1.50;;;23.50;52.30;;;;;;6173925;28;80618;-67
2023/11/21 05:01:14;;;;;;;1.35;1.23;;;23.50;52.40;;;;;;6173010;28;80981;-62
2023/11/21 05:04:14;;;;;;;1.85;1.25;;;23.50;52.00;;;;;;6176780;28;87947;-66
2023/11/21 05:07:16;;;;;;;9.02;1.48;;;23.50;52.00;;;;;;6174997;28;80628;-63
2023/11/21 05:10:16;;;;;;;2.85;1.17;;;23.50;51.90;;;;;;6180818;28;80412;-66
2023/11/21 05:13:17;;;;;;;2.97;1.50;;;23.60;51.90;;;;;;6175421;28;80407;-60
2023/11/21 05:16:18;;;;;;;3.80;1.40;;;23.60;51.90;;;;;;6173706;28;80131;-64
2023/11/21 05:19:18;;;;;;;5.72;1.83;;;23.50;51.40;;;;;;6177092;28;81699;-64
2023/11/21 05:22:19;;;;;;;6.93;1.60;;;23.50;50.80;;;;;;6133309;28;84722;-65
2023/11/21 05:25:20;;;;;;;9.55;1.90;;;23.40;50.30;;;;;;6165350;28;82001;-69
2023/11/21 05:28:20;;;;;;;5.85;1.85;;;23.40;49.80;;;;;;6168089;28;82876;-70
2023/11/21 05:31:21;;;;;;;5.35;2.45;;;23.30;49.60;;;;;;6170422;28;81125;-69
2023/11/21 05:34:23;;;;;;;5.00;2.40;;;23.20;49.20;;;;;;6170232;28;80687;-69
2023/11/21 05:37:25;;;;;;;5.45;2.10;;;23.20;49.20;;;;;;6171833;28;80979;-69
2023/11/21 05:40:29;;;;;;;3.83;2.00;;;23.10;48.80;;;;;;6173139;28;80875;-68
2023/11/21 05:43:30;;;;;;;4.75;1.95;;;23.10;48.50;;;;;;6172403;28;81588;-69
2023/11/21 05:46:30;;;;;;;5.57;2.20;;;23.10;48.40;;;;;;6172701;28;82649;-67
2023/11/21 05:49:32;;;;;;;3.35;2.28;;;23.00;48.20;;;;;;6172530;28;81472;-68
2023/11/21 05:52:32;;;;;;;6.68;2.25;;;23.00;48.10;;;;;;6173784;28;80167;-68
2023/11/21 05:55:33;;;;;;;3.50;1.85;;;23.00;48.20;;;;;;6172472;28;80322;-67
2023/11/21 05:58:33;;;;;;;4.90;2.67;;;22.90;48.20;;;;;;6173564;28;80862;-66
2023/11/21 06:01:34;;;;;;;3.63;2.17;;;22.90;48.10;;;;;;6175187;28;80713;-68
2023/11/21 06:04:35;;;;;;;4.10;2.22;;;22.90;48.10;;;;;;6175834;28;81082;-67
2023/11/21 06:07:35;;;;;;;4.45;2.13;;;22.90;48.70;;;;;;6175223;28;81028;-68
2023/11/21 06:10:36;;;;;;;4.55;2.50;;;22.90;48.20;;;;;;6174869;28;81050;-68
2023/11/21 06:13:36;;;;;;;6.85;2.60;;;22.90;48.20;;;;;;6176227;28;84051;-74
2023/11/21 06:16:36;;;;;;;4.53;2.30;;;22.80;48.30;;;;;;6175404;28;81627;-69
2023/11/21 06:19:37;;;;;;;5.88;2.42;;;22.80;48.20;;;;;;6176376;28;80854;-70
2023/11/21 06:22:37;;;;;;;3.97;2.40;;;22.80;48.30;;;;;;6162536;28;80459;-68
2023/11/21 06:25:39;;;;;;;4.07;2.42;;;22.80;48.40;;;;;;6179261;28;80989;-68
2023/11/21 06:28:39;;;;;;;4.97;2.67;;;22.80;48.50;;;;;;6180501;28;81111;-69
2023/11/21 06:31:40;;;;;;;5.20;2.58;;;22.80;48.50;;;;;;6178942;28;80867;-70
2023/11/21 06:34:41;;;;;;;5.35;2.45;;;22.70;48.40;;;;;;6179717;28;80884;-68
2023/11/21 06:37:47;;;;;;;4.70;2.63;;;22.70;48.50;;;;;;6180001;28;80939;-68
2023/11/21 06:40:47;;;;;;;3.40;2.60;;;22.70;48.60;;;;;;6180102;28;80765;-68
2023/11/21 06:43:49;;;;;;;4.45;2.33;;;22.70;48.70;;;;;;6180121;28;80841;-69
2023/11/21 06:46:49;;;;;;;5.70;2.85;;;22.70;48.80;;;;;;6179168;28;83937;-69
2023/11/21 06:49:50;;;;;;;4.82;2.55;;;22.70;48.80;;;;;;6179397;28;81192;-69
2023/11/21 06:52:50;;;;;;;5.50;2.33;;;22.60;48.80;;;;;;6179791;28;81276;-69
2023/11/21 06:55:51;;;;;;;5.03;2.70;;;22.60;48.80;;;;;;6179781;28;81478;-65
2023/11/21 06:58:53;;;;;;;6.15;2.83;;;22.60;48.80;;;;;;6178224;28;81720;-64
2023/11/21 07:01:54;;;;;;;6.65;3.00;;;22.60;48.90;;;;;;6177486;28;80719;-64
2023/11/21 07:04:54;;;;;;;6.78;2.80;;;22.60;48.90;;;;;;6177307;28;81597;-65
2023/11/21 07:07:55;;;;;;;7.78;2.85;;;22.60;48.90;;;;;;6178167;28;80773;-64
2023/11/21 07:10:55;;;;;;;4.22;2.53;;;22.60;48.90;;;;;;6177995;28;80909;-63
2023/11/21 07:13:56;;;;;;;5.70;2.63;;;22.50;48.80;;;;;;6177986;28;80447;-61
2023/11/21 07:16:56;;;;;;;5.13;2.55;;;22.50;48.90;;;;;;6178691;28;81867;-60
2023/11/21 07:19:57;;;;;;;5.22;2.60;;;22.50;48.80;;;;;;6177535;28;80489;-61
2023/11/21 07:22:57;;;;;;;4.85;3.15;;;22.50;48.80;;;;;;6177068;28;81410;-61
2023/11/21 07:25:58;;;;;;;4.75;2.72;;;22.50;48.80;;;;;;6178311;28;81310;-62
2023/11/21 07:28:58;;;;;;;11.15;3.47;;;22.50;48.80;;;;;;6175959;28;80845;-61
2023/11/21 07:31:59;;;;;;;5.72;3.35;;;22.50;48.80;;;;;;6176973;28;82846;-64
2023/11/21 07:35:01;;;;;;;4.75;2.47;;;22.50;48.80;;;;;;6176231;28;81087;-64
2023/11/21 07:38:01;;;;;;;4.97;2.72;;;22.50;48.90;;;;;;6177743;28;81106;-64
2023/11/21 07:41:02;;;;;;;6.25;2.70;;;22.40;48.80;;;;;;6176029;28;80493;-64
2023/11/21 07:44:03;;;;;;;4.80;2.47;;;22.50;48.90;;;;;;6177370;28;83073;-65
2023/11/21 07:47:04;;;;;;;4.97;2.90;;;22.40;48.90;;;;;;6176793;28;83066;-63
2023/11/21 07:50:05;;;;;;;6.05;3.20;;;22.40;48.90;;;;;;6176646;28;83416;-64
2023/11/21 07:53:05;;;;;;;3.90;2.97;;;22.40;48.80;;;;;;6176336;28;81700;-65
2023/11/21 07:56:06;;;;;;;4.53;3.05;;;22.40;48.80;;;;;;6177319;28;80256;-65
2023/11/21 07:59:06;;;;;;;4.45;2.80;;;22.40;48.90;;;;;;6176082;28;80157;-64
2023/11/21 08:02:07;;;;;;;5.15;2.45;;;22.40;48.90;;;;;;6176329;28;80475;-64
2023/11/21 08:05:07;;;;;;;7.38;3.75;;;22.40;48.80;;;;;;6176840;28;81396;-64
2023/11/21 08:08:08;;;;;;;5.65;3.10;;;22.40;48.80;;;;;;6176315;28;81583;-64
2023/11/21 08:11:10;;;;;;;7.47;3.72;;;22.40;48.90;;;;;;6175950;28;80721;-65
2023/11/21 08:14:10;;;;;;;4.85;3.17;;;22.40;48.80;;;;;;6176677;28;80304;-64
2023/11/21 08:17:11;;;;;;;5.57;2.75;;;22.40;48.80;;;;;;6165489;28;80424;-64
2023/11/21 08:20:11;;;;;;;4.93;2.92;;;22.40;48.80;;;;;;6175943;28;81658;-65
2023/11/21 08:23:12;;;;;;;5.60;2.95;;;22.40;48.80;;;;;;6176740;28;80915;-65
2023/11/21 08:26:13;;;;;;;5.45;2.95;;;22.40;48.80;;;;;;6176297;28;84848;-65
2023/11/21 08:29:13;;;;;;;7.72;3.20;;;22.40;48.70;;;;;;6176597;28;80698;-61
2023/11/21 08:32:15;;;;;;;5.60;3.03;;;22.40;48.70;;;;;;6175813;28;83008;-61
2023/11/21 08:35:15;;;;;;;6.15;3.70;;;22.40;48.60;;;;;;6177862;28;81705;-61
2023/11/21 08:38:16;;;;;;;5.47;2.90;;;22.40;48.80;;;;;;6175987;28;83953;-61
2023/11/21 08:41:16;;;;;;;9.30;3.13;;;22.40;48.50;;;;;;6176591;28;81359;-63
2023/11/21 08:44:18;;;;;;;6.07;2.78;;;22.50;48.50;;;;;;6176801;28;81615;-60
2023/11/21 08:47:18;;;;;;;5.63;3.03;;;22.50;48.40;;;;;;6175353;28;81440;-60
2023/11/21 08:50:19;;;;;;;7.00;3.25;;;22.50;48.40;;;;;;6173441;28;80850;-61
2023/11/21 08:53:19;;;;;;;5.60;3.25;;;22.50;48.40;;;;;;6174528;28;80516;-61
2023/11/21 08:56:20;;;;;;;8.18;3.35;;;22.50;48.30;;;;;;6176002;28;80254;-59
2023/11/21 08:59:20;;;;;;;6.55;3.38;;;22.50;48.10;;;;;;6175813;28;80383;-61
2023/11/21 09:02:21;;;;;;;6.00;3.35;;;22.50;48.10;;;;;;6176469;28;80887;-61
2023/11/21 09:05:22;;;;;;;8.27;3.08;;;22.60;48.20;;;;;;6176301;28;82649;-60
2023/11/21 09:08:22;;;;;;;7.68;3.88;;;22.60;48.00;;;;;;6176703;28;80584;-61
2023/11/21 09:11:23;;;;;;;7.53;3.35;;;22.60;48.20;;;;;;6174559;28;82227;-60
2023/11/21 09:14:24;;;;;;;4.03;2.70;;;22.60;47.90;;;;;;6176026;28;81856;-61
2023/11/21 09:17:24;;;;;;;5.85;3.10;;;22.60;47.80;;;;;;6176091;28;80695;-62
2023/11/21 09:20:25;;;;;;;8.60;3.60;;;22.60;48.30;;;;;;6175841;28;80569;-61
2023/11/21 09:23:25;;;;;;;6.53;3.65;;;22.70;48.10;;;;;;6175560;28;81090;-70
2023/11/21 09:26:26;;;;;;;6.20;3.78;;;22.70;48.10;;;;;;6176804;28;80422;-69
2023/11/21 09:29:26;;;;;;;6.05;3.50;;;22.60;47.90;;;;;;6176433;28;80969;-68
2023/11/21 09:32:27;;;;;;;6.32;3.60;;;22.70;47.90;;;;;;6177483;28;82262;-68
2023/11/21 09:35:27;;;;;;;7.53;3.65;;;22.70;48.00;;;;;;6176040;28;81290;-68
2023/11/21 09:38:28;;;;;;;7.68;3.30;;;22.70;47.90;;;;;;6176949;28;80682;-68
2023/11/21 09:41:29;;;;;;;5.57;3.70;;;22.70;48.10;;;;;;6175022;28;81247;-64
2023/11/21 09:44:30;;;;;;;6.90;3.45;;;22.70;47.90;;;;;;6176815;28;80343;-64
2023/11/21 09:47:30;;;;;;;6.78;3.65;;;22.70;48.20;;;;;;6175121;28;82395;-64
2023/11/21 09:50:33;;;;;;;6.95;3.65;;;22.70;47.90;;;;;;6176031;28;80282;-63
2023/11/21 09:53:33;;;;;;;7.78;3.35;;;22.70;48.00;;;;;;6174096;28;80574;-64
2023/11/21 09:56:34;;;;;;;15.07;5.20;;;22.70;48.00;;;;;;6174991;28;80667;-64
2023/11/21 09:59:35;;;;;;;8.65;4.15;;;22.70;48.00;;;;;;6179122;28;81006;-61
2023/11/21 10:02:38;;;;;;;7.90;3.72;;;22.70;47.80;;;;;;6179726;28;80107;-61
2023/11/21 10:05:38;;;;;;;8.18;3.92;;;22.70;47.90;;;;;;6179412;28;80896;-61
2023/11/21 10:08:39;;;;;;;8.00;4.53;;;22.70;47.80;;;;;;6180965;28;82760;-61
2023/11/21 10:11:40;;;;;;;8.93;3.53;;;22.70;48.00;;;;;;6178142;28;80134;-61
2023/11/21 10:14:41;;;;;;;7.65;3.58;;;22.70;47.90;;;;;;6179302;28;82156;-60
2023/11/21 10:17:45;;;;;;;9.18;3.90;;;22.70;47.80;;;;;;6178840;28;80876;-70
2023/11/21 10:20:51;;;;;;;6.70;3.67;;;22.70;47.90;;;;;;6179964;28;80477;-69
2023/11/21 10:23:53;;;;;;;5.72;3.42;;;22.70;47.80;;;;;;6179854;28;80895;-67
2023/11/21 10:26:53;;;;;;;6.30;3.95;;;22.70;47.60;;;;;;6179482;28;80310;-69
2023/11/21 10:29:54;;;;;;;8.90;4.63;;;22.70;47.70;;;;;;6180036;28;80535;-68
2023/11/21 10:32:54;;;;;;;7.50;3.85;;;22.70;47.90;;;;;;6179646;28;80822;-68
2023/11/21 10:35:55;;;;;;;5.47;3.78;;;22.70;47.90;;;;;;6179521;28;80087;-67
2023/11/21 10:38:57;;;;;;;6.05;3.55;;;22.80;47.60;;;;;;6179429;28;80752;-69
2023/11/21 10:41:57;;;;;;;7.55;3.80;;;22.80;48.00;;;;;;6178641;28;80949;-68
2023/11/21 10:44:58;;;;;;;6.15;3.65;;;22.80;47.90;;;;;;6180157;28;80419;-70
2023/11/21 10:47:58;;;;;;;9.10;3.75;;;22.80;47.80;;;;;;6180111;28;80677;-69
2023/11/21 10:50:59;;;;;;;6.85;3.20;;;22.80;47.90;;;;;;6180369;28;80907;-69
2023/11/21 10:54:00;;;;;;;8.48;3.65;;;22.80;47.90;;;;;;6180138;28;80268;-63
2023/11/21 10:57:00;;;;;;;6.50;3.50;;;22.70;48.00;;;;;;6178255;28;81630;-64
2023/11/21 11:00:01;;;;;;;8.73;3.63;;;22.70;47.90;;;;;;6178518;28;81683;-63
2023/11/21 11:03:01;;;;;;;5.30;3.08;;;22.80;47.90;;;;;;6178241;28;80313;-64
2023/11/21 11:06:02;;;;;;;6.82;3.42;;;22.70;47.80;;;;;;6177498;28;81691;-64
2023/11/21 11:09:02;;;;;;;5.07;2.80;;;22.70;47.90;;;;;;6176340;28;80044;-64
2023/11/21 11:12:04;;;;;;;5.00;3.05;;;22.70;47.70;;;;;;6178047;28;84254;-64
2023/11/21 11:15:05;;;;;;;7.28;3.72;;;22.70;48.00;;;;;;6177793;28;82300;-64
2023/11/21 11:18:06;;;;;;;6.05;3.30;;;22.70;47.60;;;;;;6177724;28;80735;-64
2023/11/21 11:21:07;;;;;;;5.07;3.47;;;22.70;47.60;;;;;;6178967;28;81051;-63
2023/11/21 11:24:08;;;;;;;5.88;3.15;;;22.70;47.90;;;;;;6178349;28;80605;-63
2023/11/21 11:27:08;;;;;;;5.38;3.03;;;22.70;47.70;;;;;;6176203;28;81657;-64
2023/11/21 11:30:10;;;;;;;7.07;3.13;;;22.70;47.60;;;;;;6178648;28;81174;-63
2023/11/21 11:33:10;;;;;;;7.07;3.08;;;22.80;47.40;;;;;;6177262;28;80047;-63
2023/11/21 11:36:11;;;;;;;9.98;3.83;;;22.70;47.40;;;;;;6153157;28;83531;-63
2023/11/21 11:39:11;;;;;;;6.40;3.28;;;22.70;47.30;;;;;;6176898;28;83740;-63
2023/11/21 11:42:12;;;;;;;6.38;3.35;;;22.70;47.50;;;;;;6177346;28;80677;-63
2023/11/21 11:45:12;;;;;;;5.55;3.10;;;22.70;47.30;;;;;;6177841;28;80203;-64
2023/11/21 11:48:14;;;;;;;9.18;3.25;;;22.70;47.30;;;;;;6177680;28;80485;-64
2023/11/21 11:51:16;;;;;;;9.02;3.35;;;22.80;47.50;;;;;;6177509;28;80284;-70
2023/11/21 11:54:17;;;;;;;7.55;3.05;;;22.70;47.20;;;;;;6177191;28;80272;-68
2023/11/21 11:57:17;;;;;;;4.70;2.75;;;22.70;47.10;;;;;;6179315;28;80752;-68
2023/11/21 12:00:19;;;;;;;7.03;3.88;;;22.70;47.10;;;;;;6168615;28;80486;-70
2023/11/21 12:03:19;;;;;;;7.40;3.38;;;22.80;47.00;;;;;;6175921;28;83263;-67
2023/11/21 12:06:24;;;;;;;8.90;3.47;;;22.70;47.10;;;;;;6178567;28;80829;-69
2023/11/21 12:09:26;;;;;;;5.22;3.20;;;22.70;46.90;;;;;;6175925;28;80501;-64
2023/11/21 12:12:27;;;;;;;5.35;2.80;;;22.70;47.80;;;;;;6177375;28;84867;-64
2023/11/21 12:15:31;;;;;;;6.32;3.20;;;22.80;46.80;;;;;;6176086;28;84050;-65
2023/11/21 12:18:31;;;;;;;5.63;3.08;;;22.80;46.90;;;;;;6175556;28;82739;-64
2023/11/21 12:21:32;;;;;;;4.78;2.95;;;22.80;46.90;;;;;;6177812;28;80871;-65
2023/11/21 12:24:32;;;;;;;6.57;2.67;;;22.80;46.90;;;;;;6177057;28;80620;-65
2023/11/21 12:27:33;;;;;;;8.05;2.97;;;22.80;46.80;;;;;;6176610;28;83651;-62
2023/11/21 12:30:35;;;;;;;10.15;2.88;;;22.80;46.80;;;;;;6175854;28;80353;-63
2023/11/21 12:33:36;;;;;;;4.85;2.92;;;22.90;46.50;;;;;;6176951;28;80290;-60
2023/11/21 12:36:36;;;;;;;5.05;2.80;;;23.00;46.30;;;;;;6176122;28;81121;-61
2023/11/21 12:39:36;;;;;;;5.95;3.10;;;23.20;46.20;;;;;;6177621;28;80439;-62
2023/11/21 12:42:37;;;;;;;4.78;2.50;;;23.20;45.70;;;;;;6175519;28;82236;-62
2023/11/21 12:45:38;;;;;;;5.65;3.00;;;23.20;45.80;;;;;;6176183;28;80369;-63
2023/11/21 12:48:45;;;;;;;4.80;2.47;;;23.20;45.80;;;;;;6176309;28;80652;-64
2023/11/21 12:51:46;;;;;;;5.90;2.67;;;23.10;45.90;;;;;;6177408;28;81973;-65
2023/11/21 12:54:49;;;;;;;4.65;2.65;;;23.10;46.30;;;;;;6176250;28;80439;-63
2023/11/21 12:57:54;;;;;;;4.32;2.30;;;23.10;46.30;;;;;;6177046;28;80624;-64
2023/11/21 13:00:54;;;;;;;6.03;2.90;;;23.00;47.10;;;;;;6199731;28;84971;-65
2023/11/21 13:03:55;;;;;;;6.82;2.70;;;23.00;46.80;;;;;;6193755;28;82418;-68
2023/11/21 13:06:59;;;;;;;5.50;3.25;;;22.90;46.60;;;;;;6177390;28;80697;-70
2023/11/21 13:09:59;;;;;;;6.97;3.00;;;22.90;46.30;;;;;;6172490;28;81371;-70
2023/11/21 13:13:00;;;;;;;6.85;3.38;;;22.90;46.70;;;;;;6175292;28;83640;-70
2023/11/21 13:16:01;;;;;;;5.93;3.15;;;22.90;46.80;;;;;;6178552;28;80709;-69
2023/11/21 13:19:01;;;;;;;5.82;2.92;;;22.90;46.80;;;;;;6184139;28;82266;-69
2023/11/21 13:22:04;;;;;;;5.38;3.03;;;22.90;46.70;;;;;;6181759;28;80445;-62
2023/11/21 13:25:07;;;;;;;5.63;2.92;;;22.90;46.80;;;;;;6175238;28;81193;-64
2023/11/21 13:28:10;;;;;;;7.15;3.03;;;22.90;46.60;;;;;;6177394;28;80630;-64
2023/11/21 13:31:20;;;;;;;5.75;3.58;;;22.90;46.50;;;;;;6200198;28;81774;-65
2023/11/21 13:34:22;;;;;;;7.45;3.30;;;22.80;46.70;;;;;;6176589;28;80896;-65
2023/11/21 13:37:24;;;;;;;5.45;3.17;;;22.80;46.60;;;;;;6174992;28;80849;-64
2023/11/21 13:40:28;;;;;;;6.07;3.22;;;22.80;46.10;;;;;;6176414;28;80758;-61
2023/11/21 13:43:28;;;;;;;6.35;3.35;;;22.90;45.90;;;;;;6179351;28;82538;-60
2023/11/21 13:46:33;;;;;;;5.63;2.78;;;23.00;45.60;;;;;;6183232;28;81229;-60
2023/11/21 13:49:40;;;;;;;5.77;3.37;;;23.00;45.90;;;;;;6173923;28;80882;-61
2023/11/21 13:52:41;;;;;;;8.85;3.78;;;23.00;45.80;;;;;;6176247;28;80489;-62
2023/11/21 13:55:41;;;;;;;5.95;3.38;;;22.90;46.10;;;;;;6176595;28;80799;-61
2023/11/21 13:58:50;;;;;;;7.00;3.95;;;22.90;46.30;;;;;;6170695;28;80322;-61
2023/11/21 14:01:55;;;;;;;6.65;3.47;;;22.90;46.20;;;;;;6174085;28;80442;-61
2023/11/21 14:04:59;;;;;;;6.47;3.40;;;22.90;46.80;;;;;;6160629;28;80611;-61
2023/11/21 14:08:04;;;;;;;6.75;3.72;;;22.90;46.40;;;;;;6174897;28;81960;-62
2023/11/21 14:11:06;;;;;;;6.35;3.30;;;22.90;46.10;;;;;;6163470;28;80474;-61
2023/11/21 14:14:07;;;;;;;6.13;3.65;;;22.80;46.30;;;;;;6162002;28;80474;-61
2023/11/21 14:17:07;;;;;;;6.32;3.58;;;22.80;46.30;;;;;;6175930;28;80707;-61
2023/11/21 14:20:15;;;;;;;8.40;3.92;;;22.80;46.00;;;;;;6149049;28;83067;-60
2023/11/21 14:23:15;;;;;;;7.85;3.45;;;22.80;46.10;;;;;;6147416;28;80635;-65
2023/11/21 14:26:17;;;;;;;7.28;4.55;;;22.80;46.20;;;;;;6175721;28;83191;-62
2023/11/21 14:29:19;;;;;;;11.43;4.47;;;22.80;45.90;;;;;;6171951;28;84699;-61
2023/11/21 14:32:21;;;;;;;7.53;4.13;;;22.90;46.10;;;;;;6170733;28;82026;-61
2023/11/21 14:35:21;;;;;;;6.90;3.67;;;22.90;46.20;;;;;;6174049;28;81981;-63
2023/11/21 14:38:22;;;;;;;9.20;3.40;;;22.90;46.30;;;;;;6176642;28;80568;-62
2023/11/21 14:41:27;;;;;;;8.07;3.92;;;22.90;46.60;;;;;;6175151;28;80593;-64
2023/11/21 14:44:32;;;;;;;12.73;3.50;;;22.90;46.60;;;;;;6173566;28;80578;-63
2023/11/21 14:47:34;;;;;;;7.95;3.70;;;22.90;46.60;;;;;;6173672;28;80480;-64
2023/11/21 14:53:53;;;;;;;11.43;3.50;;;22.90;46.80;;;;;;6177266;28;80780;-66
2023/11/21 14:56:53;;;;;;;7.25;3.83;;;22.90;46.80;;;;;;6177884;28;80550;-73
2023/11/21 14:59:57;;;;;;;6.95;4.07;;;22.90;46.70;;;;;;6175033;28;82303;-68
2023/11/21 15:02:58;;;;;;;5.15;3.25;;;22.90;46.50;;;;;;6178476;28;80514;-66
2023/11/21 15:05:59;;;;;;;8.18;4.03;;;22.90;46.70;;;;;;6179121;28;80862;-66
2023/11/21 15:12:15;;;;;;;10.00;4.15;;;22.90;46.70;;;;;;6168385;28;81940;-62
2023/11/21 15:15:17;;;;;;;17.58;4.30;;;22.90;46.60;;;;;;6176239;28;80920;-64
2023/11/21 15:18:18;;;;;;;9.23;3.70;;;22.90;46.60;;;;;;6176586;28;80600;-62
2023/11/21 15:21:18;;;;;;;7.90;4.22;;;22.90;46.80;;;;;;6178323;28;80511;-62
2023/11/21 15:24:19;;;;;;;8.95;4.47;;;22.90;47.10;;;;;;6173959;28;86388;-64
2023/11/21 15:27:20;;;;;;;8.50;4.53;;;22.90;47.20;;;;;;6170157;28;80993;-61
2023/11/21 15:30:24;;;;;;;17.25;4.43;;;22.90;47.00;;;;;;6171958;28;83200;-68
2023/11/21 15:33:27;;;;;;;14.68;4.45;;;22.90;47.10;;;;;;6177572;28;80505;-67
2023/11/21 15:36:27;;;;;;;13.80;4.28;;;22.90;47.20;;;;;;6178756;28;81615;-65
2023/11/21 15:39:30;;;;;;;9.82;4.22;;;23.00;47.40;;;;;;6179287;28;80467;-68
2023/11/21 15:42:30;;;;;;;8.10;3.97;;;23.00;47.30;;;;;;6176517;28;80685;-65
2023/11/21 15:45:31;;;;;;;10.07;5.03;;;23.00;47.40;;;;;;6173966;28;80224;-64
2023/11/21 15:48:31;;;;;;;9.48;3.67;;;23.00;47.30;;;;;;6178762;28;80672;-64